Flight Track Log - Related Links

Times and Time Zones

All times are in EDT time to prevent confusion due to time zone crossing. See the JZA8745 flight status page for this flight to view local times or setup timezone preferences in your user account.

Time Position Orientation Groundspeed Altitude Reporting Facility
EDT Latitude Longitude Course Direction KTS MPH feet Rate Location/Type
Wed 03:00:27 PM 47.5500 -65.9167 244° Southwest 140 161 6,200  Level Moncton Center
Wed 03:01:27 PM 47.5333 -65.9667 244° Southwest 140 161 7,900 1,600 Climbing Moncton Center
Wed 03:02:27 PM 47.5167 -66.0167 244° Southwest 140 161 9,400 1,150 Climbing Moncton Center
Wed 03:03:27 PM 47.5000 -66.0833 250° West 170 196 10,200 900 Climbing Moncton Center
Wed 03:04:27 PM 47.4667 -66.1500 234° Southwest 190 219 11,200 1,050 Climbing Moncton Center
Wed 03:05:27 PM 47.4500 -66.2333 254° West 190 219 12,300 1,000 Climbing Moncton Center
Wed 03:06:00 PM 47.4928 -66.1216 244° Southwest  Level FlightAware Approximate
Wed 03:06:27 PM 47.4167 -66.3000 234° Southwest 200 230 13,200  Level Moncton Center
Wed 03:07:27 PM 47.4000 -66.3833 254° West 200 230 14,200 950 Climbing Moncton Center
Wed 03:08:27 PM 47.3667 -66.4500 234° Southwest 200 230 15,100 950 Climbing Moncton Center
Wed 03:09:27 PM 47.3500 -66.5167 250° West 210 242 16,100 900 Climbing Moncton Center
Wed 03:10:27 PM 47.3167 -66.6000 239° Southwest 210 242 16,900 850 Climbing Moncton Center
Wed 03:11:27 PM 47.3000 -66.6667 250° West 200 230 17,800 900 Climbing Moncton Center
Wed 03:12:27 PM 47.2500 -66.7333 222° Southwest 200 230 18,700 800 Climbing Moncton Center
Wed 03:13:27 PM 47.2333 -66.8167 254° West 210 242 19,400 750 Climbing Moncton Center
Wed 03:14:27 PM 47.2000 -66.8833 234° Southwest 210 242 20,200 700 Climbing Moncton Center
Wed 03:15:27 PM 47.1833 -66.9667 254° West 210 242 20,800 300 Climbing Moncton Center
Wed 03:16:27 PM 47.1500 -67.0333 234° Southwest 210 242 20,800 450 Level Moncton Center
Wed 03:18:07 PM 47.1167 -67.1167 240° Southwest 210 242 22,000 483 Climbing Montreal Center
Wed 03:18:56 PM 47.0950 -67.2389 255° West 235 270 22,000  Level Boston Center
Wed 03:19:56 PM 47.0611 -67.3214 239° Southwest 241 277 22,000  Level Boston Center
Wed 03:20:56 PM 47.0278 -67.4158 243° Southwest 253 291 22,000  Level Boston Center
Wed 03:21:56 PM 46.9922 -67.5103 241° Southwest 259 298 22,000  Level Boston Center
Wed 03:22:56 PM 46.9586 -67.6047 242° Southwest 265 305 22,000  Level Boston Center
Wed 03:23:56 PM 46.9225 -67.6928 239° Southwest 265 305 22,000  Level Boston Center
Wed 03:24:56 PM 46.8889 -67.7869 242° Southwest 265 305 22,000  Level Boston Center
Wed 03:25:56 PM 46.8550 -67.8808 242° Southwest 265 305 22,000  Level Boston Center
Wed 03:27:08 PM 46.8181 -67.9992 246° West 281 323 22,000  Level Boston Center
Wed 03:28:08 PM 46.7714 -68.0936 234° Southwest 276 318 22,000  Level Boston Center
Wed 03:29:08 PM 46.7461 -68.1956 250° West 271 312 22,000  Level Boston Center
Wed 03:30:08 PM 46.7258 -68.2700 248° West 259 298 22,000  Level Boston Center
Wed 03:31:08 PM 46.6939 -68.3722 246° West 259 298 22,000  Level Boston Center
Wed 03:32:08 PM 46.6658 -68.4650 246° West 259 298 22,000  Level Boston Center
Wed 03:33:08 PM 46.6378 -68.5606 247° West 259 298 22,000  Level Boston Center
Wed 03:34:08 PM 46.6097 -68.6503 246° West 259 298 22,000  Level Boston Center
Wed 03:35:08 PM 46.5836 -68.7456 248° West 259 298 22,000  Level Boston Center
Wed 03:36:08 PM 46.5553 -68.8411 247° West 259 298 22,000  Level Boston Center
Wed 03:37:20 PM 46.5267 -68.9333 246° West 259 298 22,000  Level Boston Center
Wed 03:38:20 PM 46.4925 -69.0439 246° West 259 298 22,000  Level Boston Center
Wed 03:39:20 PM 46.4661 -69.1358 247° West 259 298 22,000  Level Boston Center
Wed 03:40:20 PM 46.4372 -69.2219 244° Southwest 254 292 22,000  Level Boston Center
Wed 03:41:20 PM 46.4103 -69.3047 245° Southwest 243 280 22,000  Level Boston Center
Wed 03:42:20 PM 46.3856 -69.3903 247° West 243 280 22,000  Level Boston Center
Wed 03:43:20 PM 46.3564 -69.4761 244° Southwest 243 280 22,000  Level Boston Center
Wed 03:44:20 PM 46.3294 -69.5617 246° West 238 274 22,000  Level Boston Center
Wed 03:45:20 PM 46.3022 -69.6472 245° Southwest 238 274 22,000  Level Boston Center
Wed 03:46:20 PM 46.2775 -69.7386 249° West 238 274 22,000  Level Boston Center
Wed 03:47:20 PM 46.2503 -69.8239 245° Southwest 238 274 22,000  Level Boston Center
Wed 03:48:32 PM 46.2250 -69.9119 247° West 238 274 22,000  Level Boston Center
Wed 03:49:32 PM 46.1897 -70.0125 243° Southwest 238 274 22,000  Level Boston Center
Wed 03:50:32 PM 46.1622 -70.0975 245° Southwest 238 274 22,000  Level Boston Center
Wed 03:51:07 PM 46.1333 -70.1333 221° Southwest 230 265 22,000  Level Montreal Center
Wed 03:52:07 PM 46.1167 -70.2167 254° West 230 265 22,000  Level Montreal Center
Wed 03:53:07 PM 46.0833 -70.3167 244° Southwest 230 265 22,000  Level Montreal Center
Wed 03:54:07 PM 46.0500 -70.3833 234° Southwest 230 265 22,000  Level Montreal Center
Wed 03:55:07 PM 46.0333 -70.4667 254° West 230 265 22,000  Level Montreal Center
Wed 03:56:07 PM 46.0167 -70.5500 254° West 230 265 22,000  Level Montreal Center
Wed 03:57:07 PM 45.9833 -70.6333 240° Southwest 230 265 22,000  Level Montreal Center
Wed 03:58:07 PM 45.9500 -70.7167 240° Southwest 230 265 22,000  Level Montreal Center
Wed 03:59:07 PM 45.9167 -70.7833 234° Southwest 230 265 22,000  Level Montreal Center
Wed 04:00:07 PM 45.9000 -70.8833 257° West 220 253 22,000  Level Montreal Center
Wed 04:01:07 PM 45.9000 -70.9833 270° West 220 253 22,000  Level Montreal Center
Wed 04:02:07 PM 45.9000 -71.0500 270° West 220 253 22,000  Level Montreal Center
Wed 04:03:07 PM 45.8833 -71.1500 257° West 220 253 22,000  Level Montreal Center
Wed 04:04:07 PM 45.8667 -71.2167 250° West 220 253 22,000  Level Montreal Center
Wed 04:05:07 PM 45.8833 -71.3167 283° West 220 253 22,000  Level Montreal Center
Wed 04:06:07 PM 45.8667 -71.4000 254° West 210 242 22,000  Level Montreal Center
Wed 04:07:07 PM 45.8500 -71.4833 254° West 210 242 22,000  Level Montreal Center
Wed 04:08:07 PM 45.8500 -71.5667 270° West 210 242 22,000  Level Montreal Center
Wed 04:09:07 PM 45.8333 -71.6667 257° West 210 242 22,000  Level Montreal Center
Wed 04:10:07 PM 45.8333 -71.7333 270° West 210 242 22,000  Level Montreal Center
Wed 04:11:07 PM 45.8333 -71.8333 270° West 210 242 22,000  Level Montreal Center
Wed 04:12:07 PM 45.8167 -71.9000 250° West 210 242 22,000  Level Montreal Center
Wed 04:13:07 PM 45.8000 -71.9833 254° West 210 242 22,000  Level Montreal Center
Wed 04:14:07 PM 45.8000 -72.0667 270° West 210 242 22,000  Level Montreal Center
Wed 04:15:07 PM 45.8000 -72.1500 270° West 210 242 22,000  Level Montreal Center
Wed 04:16:07 PM 45.7833 -72.2500 257° West 210 242 22,000 -500 Level Montreal Center
Wed 04:17:07 PM 45.7833 -72.3167 270° West 210 242 21,000 -1,150 Descending Montreal Center
Wed 04:18:07 PM 45.7667 -72.4167 257° West 220 253 19,700 -1,350 Descending Montreal Center
Wed 04:19:07 PM 45.7500 -72.4833 250° West 210 242 18,300 -1,450 Descending Montreal Center
Wed 04:20:07 PM 45.7500 -72.5833 270° West 210 242 16,800 -1,400 Descending Montreal Center
Wed 04:21:07 PM 45.7500 -72.6500 270° West 200 230 15,500 -1,400 Descending Montreal Center
Wed 04:22:07 PM 45.7500 -72.7333 270° West 190 219 14,000 -1,750 Descending Montreal Center
Wed 04:23:07 PM 45.7333 -72.8000 250° West 190 219 12,000 -1,950 Descending Montreal Center
Wed 04:24:07 PM 45.7167 -72.9000 257° West 200 230 10,100 -1,700 Descending Montreal Center
Wed 04:25:07 PM 45.7167 -72.9667 270° West 210 242 8,600 -1,050 Descending Montreal Center
Wed 04:26:07 PM 45.7000 -73.0667 257° West 220 253 8,000 -300 Descending Montreal Center
Wed 04:27:07 PM 45.6833 -73.1333 250° West 210 242 8,000 -400 Level Montreal Center
Wed 04:28:07 PM 45.6667 -73.2167 254° West 200 230 7,200 -1,000 Descending Montreal Center
Wed 04:29:07 PM 45.7000 -73.3000 300° West 220 253 6,000 -850 Descending Montreal Center
Wed 04:30:07 PM 45.7167 -73.3833 286° West 210 242 5,500 -900 Descending Montreal Center
Wed 04:31:07 PM 45.7000 -73.4500 250° West 170 196 4,200 -750 Descending Montreal Center
Wed 04:32:07 PM 45.6667 -73.4667 199° South 150 173 4,000 -100 Descending Montreal Center
Wed 04:33:07 PM 45.6333 -73.5167 226° Southwest 150 173 4,000 -200 Level Montreal Center
Wed 04:34:07 PM 45.6000 -73.5500 215° Southwest 160 184 3,600 -750 Descending Montreal Center
Wed 04:35:07 PM 45.5667 -73.6000 226° Southwest 160 184 2,500 -900 Descending Montreal Center
Wed 04:36:07 PM 45.5333 -73.6500 226° Southwest 140 161 1,800 -700 Descending Montreal Center
Wed 04:37:07 PM 45.5000 -73.6667 199° South 140 161 1,100 -700 Descending Montreal Center
Wed 04:38:07 PM 45.4833 -73.7167 245° Southwest 110 127 400 -700 Descending Montreal Center

Login

Don't have an account? Register now (free) for customized features, flight alerts, and more!